Aérodrome :
LOGIN :

S'inscrire | Disclaimer

   EN    FR    IT 

 










Légende :    VFR   VFR Marginal   IFR   IFR Intensif   IFR Très Intensif
Visi : 
Plafond : 
>= 8 km
>= 3000ft
5 à 8 km
1000 à 3000 ft
1500m à 5 km
500 à 1000 ft
800 à 1500m
200 à 500 ft
< 800m
< 200 ft
Symboles :   Orages  Brouillard  Fortes neiges  Fortes précipitations  Vent > 20 kt
SIGMETs :   Divers  Orages  Givrage  Turbulence  Onde Orograph.  Cendres Volcan.






- Altitude de l'aérodrome : 13 ft
- Code IATA : LYX


EGMD - Lydd

DERNIER METAR :
  • 241520Z AUTO 28013KT 9999 SCT016/// BKN021/// 05/03 Q0993

METARs EXPIRÉS :
  • 241450Z AUTO 25008KT 9999 FEW013/// SCT018/// BKN024/// 06/04 Q0993
  • 241420Z AUTO 14012KT 9999 FEW007/// SCT011/// BKN015/// 05/04 Q0993
  • 241350Z AUTO 15015KT 9999 BKN007/// OVC010/// 04/03 Q0994
  • 241320Z AUTO 16017KT 8000 -RA BKN009/// OVC013/// 03/02 Q0994 RERA
  • 241250Z AUTO 16018KT 9999 -RA BKN008/// BKN021/// OVC026/// 04/02 Q0995

TAF TAF EGMD
Valide du 24 à 15h jusqu'au 25 à 00h UTC


241359Z 2415/2424 15015KT 9999 SCT010
BECMG 2415/2418 25007KT
PROB30
TEMPO 2415/2417 6000 RA BKN007
PROB30
TEMPO 2422/2424 6000 RA BKN007
ATIS : +44 1797 322 422



MET'MAP, la Météo Aéronautique d'un coup d'oeil ! - Copyright ORBIFLY Décembre 2007 - Disclaimer

ORBIFLY MET'MAP TEAM :

Programmation & Développement : Alexandra Zaïnal
Sur une idée originale de : Baudouin d'Aumeries
Assistance à la programmation : Marc-Olivier Méhu
Soutien technique & logistique : Manuel Goepfert

Contact : metmap@orbifly.com




SOURCES & CREDITS :

   NOAA